Time;durP1;ratioP1;P1;durP2;ratioP2;P2;SDS_P1;SDS_P2;PMS_P1;PMS_P2;Temp;Humidity;BMP_temperature;BMP_pressure;BME280_temperature;BME280_humidity;BME280_pressure;Samples;Min_cycle;Max_cycle;Signal;HPM_P1;HPM_P2
2022/05/03 00:00:16;;;;;;;0.20;0.20;;;9.00;99.90;;;;;;5025431;28;20446;-86
2022/05/03 00:03:08;;;;;;;0.20;0.20;;;8.90;99.90;;;;;;5021117;28;20444;-87
2022/05/03 00:06:11;;;;;;;0.30;0.30;;;8.80;99.90;;;;;;5026441;28;20191;-85
2022/05/03 00:09:07;;;;;;;0.20;0.20;;;9.00;99.90;;;;;;5040925;28;20466;-86
2022/05/03 00:11:45;;;;;;;0.20;0.20;;;9.00;99.90;;;;;;5025272;28;20446;-87
2022/05/03 00:14:20;;;;;;;0.20;0.20;;;9.10;99.90;;;;;;5037876;28;20474;-86
2022/05/03 00:16:48;;;;;;;0.20;0.20;;;9.10;99.90;;;;;;5019238;28;20449;-87
2022/05/03 00:19:14;;;;;;;0.30;0.30;;;9.00;99.90;;;;;;5025937;28;20446;-87
2022/05/03 00:21:40;;;;;;;0.20;0.20;;;8.90;99.90;;;;;;5017363;28;20646;-86
2022/05/03 00:24:07;;;;;;;0.20;0.20;;;8.80;99.90;;;;;;5020165;28;21193;-85
2022/05/03 00:26:34;;;;;;;0.30;0.30;;;8.70;99.90;;;;;;5028362;28;20451;-86
2022/05/03 00:29:00;;;;;;;0.20;0.20;;;8.70;99.90;;;;;;5014977;28;20438;-87
2022/05/03 00:31:27;;;;;;;0.20;0.20;;;8.70;99.90;;;;;;5013023;28;20449;-86
2022/05/03 00:33:57;;;;;;;0.20;0.20;;;8.60;99.90;;;;;;5018324;28;20457;-86
2022/05/03 00:36:23;;;;;;;0.30;0.30;;;8.50;99.90;;;;;;5053247;28;20573;-86
2022/05/03 00:38:50;;;;;;;0.30;0.30;;;8.70;99.90;;;;;;5022196;28;20448;-86
2022/05/03 00:41:26;;;;;;;0.20;0.20;;;8.70;99.90;;;;;;5024396;28;20453;-86
2022/05/03 00:44:55;;;;;;;0.20;0.20;;;8.70;99.90;;;;;;5031482;28;20445;-86
2022/05/03 00:46:57;;;;;;;0.20;0.20;;;8.60;99.90;;;;;;5024596;28;20496;-86
2022/05/03 00:49:35;;;;;;;0.20;0.20;;;8.60;99.90;;;;;;5032138;28;20445;-87
2022/05/03 00:52:23;;;;;;;0.27;0.27;;;8.60;99.90;;;;;;5025799;28;20533;-86
2022/05/03 00:55:10;;;;;;;0.30;0.30;;;8.40;99.90;;;;;;5025014;28;20466;-86
2022/05/03 00:57:45;;;;;;;0.30;0.30;;;8.60;99.90;;;;;;5022333;28;20461;-87
2022/05/03 01:00:13;;;;;;;0.30;0.30;;;8.60;99.90;;;;;;5026687;28;20519;-86
2022/05/03 01:02:54;;;;;;;0.30;0.30;;;8.50;99.90;;;;;;5023962;28;20809;-85
2022/05/03 01:05:25;;;;;;;0.30;0.30;;;8.40;99.90;;;;;;5023441;28;20449;-86
2022/05/03 01:08:04;;;;;;;0.20;0.20;;;8.60;99.90;;;;;;5026029;28;20442;-87
2022/05/03 01:10:34;;;;;;;0.30;0.30;;;8.60;99.90;;;;;;5033340;28;20493;-85
2022/05/03 01:13:06;;;;;;;0.30;0.30;;;8.70;99.90;;;;;;5026904;28;20875;-86
2022/05/03 01:15:44;;;;;;;0.30;0.30;;;8.60;99.90;;;;;;5029738;28;21004;-85
2022/05/03 01:18:21;;;;;;;0.30;0.30;;;8.60;99.90;;;;;;5036909;28;21090;-85
2022/05/03 01:20:52;;;;;;;0.30;0.30;;;8.60;99.90;;;;;;5031873;28;20455;-86
2022/05/03 01:23:36;;;;;;;0.20;0.20;;;8.40;99.90;;;;;;5031681;28;20447;-86
2022/05/03 01:26:15;;;;;;;0.20;0.20;;;8.40;99.90;;;;;;5031433;28;20944;-85
2022/05/03 01:29:08;;;;;;;0.20;0.20;;;8.40;99.90;;;;;;5043607;28;20487;-85
2022/05/03 01:31:35;;;;;;;0.30;0.30;;;8.40;99.90;;;;;;5018287;28;21206;-86
2022/05/03 01:34:02;;;;;;;0.30;0.30;;;8.40;99.90;;;;;;5028551;28;20449;-86
2022/05/03 01:36:35;;;;;;;0.20;0.20;;;8.40;99.90;;;;;;5025061;28;20492;-86
2022/05/03 01:39:11;;;;;;;0.30;0.30;;;8.50;99.90;;;;;;5016130;28;20435;-87
2022/05/03 01:41:48;;;;;;;0.20;0.20;;;8.50;99.90;;;;;;5034942;28;20449;-85
2022/05/03 01:44:16;;;;;;;0.30;0.30;;;8.40;99.90;;;;;;5024132;28;20784;-86
2022/05/03 01:46:42;;;;;;;0.27;0.27;;;8.40;99.90;;;;;;5024137;28;20451;-86
2022/05/03 01:53:01;;;;;;;0.20;0.20;;;8.40;99.90;;;;;;5035105;28;20655;-86
2022/05/03 01:55:57;;;;;;;0.30;0.30;;;8.60;99.90;;;;;;5051747;28;21107;-85
2022/05/03 01:58:51;;;;;;;0.20;0.20;;;8.60;99.90;;;;;;5036612;28;20442;-86
2022/05/03 02:01:29;;;;;;;0.30;0.30;;;8.80;99.90;;;;;;5036554;28;20464;-85
2022/05/03 02:04:07;;;;;;;0.20;0.20;;;8.70;99.90;;;;;;5041398;28;20536;-86
2022/05/03 02:06:59;;;;;;;0.30;0.30;;;8.80;99.90;;;;;;5057886;28;20569;-86
2022/05/03 02:10:02;;;;;;;0.20;0.20;;;8.80;99.90;;;;;;5026296;28;20519;-85
2022/05/03 02:12:29;;;;;;;0.20;0.20;;;8.90;99.90;;;;;;5029114;28;20865;-86
2022/05/03 02:15:04;;;;;;;0.20;0.20;;;9.00;99.90;;;;;;5035854;28;20568;-86
2022/05/03 02:17:55;;;;;;;0.20;0.20;;;9.00;99.90;;;;;;5027293;28;20497;-84
2022/05/03 02:20:28;;;;;;;0.20;0.20;;;9.10;99.90;;;;;;5046595;28;20446;-86
2022/05/03 02:23:13;;;;;;;0.20;0.20;;;9.00;99.90;;;;;;5029880;28;20460;-85
2022/05/03 02:26:06;;;;;;;0.20;0.20;;;9.10;99.90;;;;;;5016317;28;20442;-85
2022/05/03 02:28:42;;;;;;;0.30;0.30;;;9.00;99.90;;;;;;5028008;28;20446;-86
2022/05/03 02:31:12;;;;;;;0.20;0.20;;;9.10;99.90;;;;;;5029638;28;20446;-85
2022/05/03 02:33:44;;;;;;;0.20;0.20;;;9.10;99.90;;;;;;5041628;28;20446;-85
2022/05/03 02:36:15;;;;;;;0.30;0.30;;;9.00;99.90;;;;;;5041658;28;20498;-85
2022/05/03 02:38:50;;;;;;;0.30;0.30;;;9.20;99.90;;;;;;5029014;28;20488;-84
2022/05/03 02:41:19;;;;;;;0.30;0.30;;;9.20;99.90;;;;;;5026336;28;20469;-85
2022/05/03 02:43:47;;;;;;;0.20;0.20;;;9.20;99.90;;;;;;5031970;28;20516;-85
2022/05/03 02:46:27;;;;;;;0.20;0.20;;;9.10;99.90;;;;;;5056170;28;20800;-85
2022/05/03 02:49:07;;;;;;;0.30;0.30;;;9.20;99.90;;;;;;5011511;28;20458;-85
2022/05/03 02:52:08;;;;;;;0.20;0.20;;;9.30;99.90;;;;;;5022341;28;20941;-85
2022/05/03 02:55:06;;;;;;;0.40;0.40;;;9.20;99.90;;;;;;5008532;28;20485;-85
2022/05/03 02:58:05;;;;;;;0.20;0.20;;;9.20;99.90;;;;;;5013783;28;20458;-85
2022/05/03 03:03:43;;;;;;;0.20;0.20;;;9.20;99.90;;;;;;5028348;28;20517;-85
2022/05/03 03:06:22;;;;;;;0.23;0.23;;;9.20;99.90;;;;;;5042849;28;20540;-85
2022/05/03 03:08:54;;;;;;;0.20;0.20;;;9.10;99.90;;;;;;5015469;28;20442;-86
2022/05/03 03:11:52;;;;;;;0.20;0.20;;;9.20;99.90;;;;;;5054243;28;20786;-85
2022/05/03 03:14:33;;;;;;;0.20;0.20;;;9.20;99.90;;;;;;5025275;28;20476;-85
2022/05/03 03:17:10;;;;;;;0.20;0.20;;;9.20;99.90;;;;;;5017417;28;20503;-84
2022/05/03 03:20:04;;;;;;;0.20;0.20;;;9.20;99.90;;;;;;5015778;28;20450;-84
2022/05/03 03:22:35;;;;;;;0.30;0.30;;;9.30;99.90;;;;;;5026358;28;20821;-85
2022/05/03 03:25:02;;;;;;;0.20;0.20;;;9.30;99.90;;;;;;5030479;28;20987;-85
2022/05/03 03:27:31;;;;;;;0.20;0.20;;;9.30;99.90;;;;;;5026043;28;20497;-85
2022/05/03 03:29:58;;;;;;;0.20;0.20;;;9.30;99.90;;;;;;5025837;28;20524;-85
2022/05/03 03:32:25;;;;;;;0.20;0.20;;;9.30;99.90;;;;;;5026900;28;20443;-84
2022/05/03 03:35:01;;;;;;;0.20;0.20;;;9.20;99.90;;;;;;5042563;28;20466;-86
2022/05/03 03:37:35;;;;;;;0.20;0.20;;;9.20;99.90;;;;;;5035701;28;20452;-85
2022/05/03 03:40:02;;;;;;;0.20;0.20;;;9.20;99.90;;;;;;5030227;28;20477;-85
2022/05/03 03:42:29;;;;;;;0.20;0.20;;;9.20;99.90;;;;;;5023349;28;20519;-85
2022/05/03 03:45:00;;;;;;;0.20;0.20;;;9.10;99.90;;;;;;5016534;28;20438;-85
2022/05/03 03:47:28;;;;;;;0.30;0.30;;;9.20;99.90;;;;;;5024585;28;20443;-85
2022/05/03 03:49:56;;;;;;;0.20;0.20;;;9.20;99.90;;;;;;5018330;28;20561;-85
2022/05/03 03:52:23;;;;;;;0.20;0.20;;;9.10;99.90;;;;;;5053298;28;20438;-85
2022/05/03 03:54:49;;;;;;;0.20;0.20;;;9.10;99.90;;;;;;5024376;28;20516;-85
2022/05/03 03:57:15;;;;;;;0.20;0.20;;;9.20;99.90;;;;;;5025802;28;21012;-84
2022/05/03 03:59:41;;;;;;;0.20;0.20;;;9.20;99.90;;;;;;5033358;28;20525;-84
2022/05/03 04:02:07;;;;;;;0.20;0.20;;;9.30;99.90;;;;;;5038829;28;20500;-85
2022/05/03 04:04:36;;;;;;;0.30;0.30;;;9.30;99.90;;;;;;5024047;28;20486;-85
2022/05/03 04:07:04;;;;;;;0.20;0.20;;;9.20;99.90;;;;;;5034715;28;20238;-85
2022/05/03 04:09:30;;;;;;;0.20;0.20;;;9.20;99.90;;;;;;5025956;28;20442;-86
2022/05/03 04:11:55;;;;;;;0.20;0.20;;;9.30;99.90;;;;;;5018526;28;20453;-85
2022/05/03 04:14:21;;;;;;;0.20;0.20;;;9.20;99.90;;;;;;5040805;28;20558;-85
2022/05/03 04:16:47;;;;;;;0.40;0.40;;;9.30;99.90;;;;;;5025175;28;20516;-84
2022/05/03 04:19:13;;;;;;;0.20;0.20;;;9.30;99.90;;;;;;5024447;28;20180;-86
2022/05/03 04:21:39;;;;;;;0.30;0.30;;;9.20;99.90;;;;;;5026921;28;20198;-85
2022/05/03 04:24:06;;;;;;;0.33;0.33;;;9.20;99.90;;;;;;5023293;28;20446;-85
2022/05/03 04:26:32;;;;;;;0.50;0.50;;;9.20;99.90;;;;;;5047613;28;20811;-85
2022/05/03 04:28:59;;;;;;;0.43;0.43;;;9.30;99.90;;;;;;5012404;28;20466;-85
2022/05/03 04:31:29;;;;;;;0.50;0.50;;;9.30;99.90;;;;;;5019944;28;20452;-85
2022/05/03 04:33:55;;;;;;;0.20;0.20;;;9.30;99.90;;;;;;5023577;28;21019;-85
2022/05/03 04:36:21;;;;;;;0.40;0.40;;;9.30;99.90;;;;;;5023861;28;20977;-85
2022/05/03 04:38:50;;;;;;;0.30;0.30;;;9.30;99.90;;;;;;5030416;28;20529;-86
2022/05/03 04:41:15;;;;;;;0.30;0.30;;;9.20;99.90;;;;;;5024718;28;20450;-86
2022/05/03 04:43:41;;;;;;;0.30;0.30;;;9.30;99.90;;;;;;5034381;28;20488;-86
2022/05/03 04:46:07;;;;;;;0.20;0.20;;;9.30;99.90;;;;;;5033969;28;20226;-85
2022/05/03 04:48:32;;;;;;;0.20;0.20;;;9.40;99.90;;;;;;5032775;28;20454;-84
2022/05/03 04:50:58;;;;;;;0.40;0.40;;;9.40;99.90;;;;;;5033418;28;20652;-84
2022/05/03 04:53:24;;;;;;;0.50;0.50;;;9.30;99.90;;;;;;5043828;28;20195;-85
2022/05/03 04:55:52;;;;;;;0.50;0.50;;;9.40;99.90;;;;;;5026095;28;20286;-85
2022/05/03 04:58:18;;;;;;;0.30;0.30;;;9.50;99.90;;;;;;5029218;28;20199;-86
2022/05/03 05:00:45;;;;;;;0.40;0.40;;;9.60;99.90;;;;;;5024980;28;20446;-85
2022/05/03 05:03:10;;;;;;;0.43;0.43;;;9.60;99.90;;;;;;5038959;28;20222;-86
2022/05/03 05:05:36;;;;;;;0.27;0.27;;;9.60;99.90;;;;;;5028321;28;20473;-87
2022/05/03 05:08:07;;;;;;;0.20;0.20;;;9.60;99.90;;;;;;5031178;28;20191;-88
2022/05/03 05:10:33;;;;;;;0.30;0.30;;;9.70;99.90;;;;;;5032900;28;20298;-86
2022/05/03 05:13:00;;;;;;;0.50;0.50;;;9.70;99.90;;;;;;5025958;28;20457;-88
2022/05/03 05:15:26;;;;;;;0.50;0.50;;;9.70;99.90;;;;;;5032615;28;20953;-88
2022/05/03 05:17:56;;;;;;;0.30;0.30;;;9.80;99.90;;;;;;5031609;28;20457;-88
2022/05/03 05:20:23;;;;;;;0.50;0.50;;;9.70;99.90;;;;;;5021066;28;20484;-90
2022/05/03 05:22:49;;;;;;;0.30;0.30;;;9.70;99.90;;;;;;5020546;28;20442;-89
2022/05/03 05:25:14;;;;;;;0.50;0.50;;;9.60;99.90;;;;;;5038251;28;20528;-88
2022/05/03 05:27:40;;;;;;;0.60;0.60;;;9.60;99.90;;;;;;5039792;28;20464;-88
2022/05/03 05:30:07;;;;;;;0.47;0.47;;;9.70;99.90;;;;;;5031307;28;20336;-87
2022/05/03 05:32:33;;;;;;;0.30;0.30;;;9.70;99.90;;;;;;5030259;28;20947;-88
2022/05/03 05:34:59;;;;;;;0.30;0.30;;;9.50;99.90;;;;;;5029677;28;21161;-87
2022/05/03 05:37:24;;;;;;;0.20;0.20;;;9.70;99.90;;;;;;5022096;28;20557;-87
2022/05/03 05:39:50;;;;;;;0.20;0.20;;;9.80;99.90;;;;;;5058245;28;20188;-86
2022/05/03 05:42:15;;;;;;;0.23;0.23;;;9.90;99.90;;;;;;5043383;28;20190;-87
2022/05/03 05:44:41;;;;;;;0.20;0.20;;;10.00;99.90;;;;;;5035365;28;20194;-88
2022/05/03 05:47:06;;;;;;;0.20;0.20;;;10.30;99.90;;;;;;5056040;28;20192;-86
2022/05/03 05:49:32;;;;;;;0.20;0.20;;;10.30;99.90;;;;;;5062819;28;20535;-84
2022/05/03 05:53:31;;;;;;;0.30;0.30;;;10.10;99.90;;;;;;5025286;28;20258;-87
2022/05/03 05:54:44;;;;;;;0.20;0.20;;;10.10;99.90;;;;;;5013605;28;20219;-87
2022/05/03 05:57:10;;;;;;;0.30;0.30;;;10.10;99.90;;;;;;5040564;28;20578;-87
2022/05/03 05:59:35;;;;;;;0.30;0.30;;;10.00;99.90;;;;;;5025325;28;22443;-85
2022/05/03 06:02:01;;;;;;;0.30;0.30;;;9.80;99.90;;;;;;5034409;28;20266;-87
2022/05/03 06:04:29;;;;;;;0.30;0.30;;;9.80;99.90;;;;;;5038230;28;20269;-86
2022/05/03 06:06:55;;;;;;;0.27;0.27;;;9.90;99.90;;;;;;5026020;28;20184;-85
2022/05/03 06:09:21;;;;;;;0.20;0.20;;;10.10;99.90;;;;;;5016176;28;20454;-84
2022/05/03 06:11:46;;;;;;;0.30;0.30;;;10.20;99.90;;;;;;5028778;28;20453;-84
2022/05/03 06:14:12;;;;;;;0.20;0.20;;;10.30;99.90;;;;;;5031746;28;20317;-85
2022/05/03 06:17:07;;;;;;;0.20;0.20;;;10.30;99.90;;;;;;5029626;28;20219;-84
2022/05/03 06:19:32;;;;;;;0.20;0.20;;;10.20;99.90;;;;;;5021220;28;20206;-85
2022/05/03 06:21:58;;;;;;;0.20;0.20;;;10.20;99.90;;;;;;5027547;28;20435;-85
2022/05/03 06:24:23;;;;;;;0.20;0.20;;;10.30;99.90;;;;;;5023482;28;20541;-85
2022/05/03 06:26:49;;;;;;;0.20;0.20;;;10.40;99.90;;;;;;5021303;28;20182;-85
2022/05/03 06:29:14;;;;;;;0.20;0.20;;;10.20;99.90;;;;;;5025297;28;20812;-86
2022/05/03 06:31:40;;;;;;;0.20;0.20;;;10.50;99.90;;;;;;5012553;28;20181;-84
2022/05/03 06:34:06;;;;;;;0.20;0.20;;;10.70;99.90;;;;;;5038491;28;20190;-85
2022/05/03 06:36:33;;;;;;;0.20;0.20;;;10.70;99.90;;;;;;5047342;28;20223;-86
2022/05/03 06:38:59;;;;;;;0.20;0.20;;;10.80;99.90;;;;;;5015306;28;20439;-87
2022/05/03 06:41:25;;;;;;;0.20;0.20;;;10.70;99.90;;;;;;5033747;28;20453;-87
2022/05/03 06:43:50;;;;;;;0.20;0.20;;;10.80;99.90;;;;;;5028217;28;20445;-85
2022/05/03 06:46:17;;;;;;;0.20;0.20;;;10.60;99.90;;;;;;5022967;28;20213;-85
2022/05/03 06:48:43;;;;;;;0.20;0.20;;;10.40;99.90;;;;;;5031011;28;20608;-83
2022/05/03 06:51:08;;;;;;;0.20;0.20;;;10.00;99.90;;;;;;5027988;28;20446;-83
2022/05/03 06:53:34;;;;;;;0.20;0.20;;;10.20;99.90;;;;;;5025400;28;20180;-82
2022/05/03 06:56:00;;;;;;;0.20;0.20;;;10.10;99.90;;;;;;5026592;28;20222;-83
2022/05/03 06:58:26;;;;;;;0.20;0.20;;;10.50;99.90;;;;;;5023513;28;20466;-83
2022/05/03 07:00:51;;;;;;;0.17;0.17;;;10.70;99.90;;;;;;5025621;28;20239;-83
2022/05/03 07:03:17;;;;;;;0.20;0.20;;;10.90;99.90;;;;;;5023591;28;20179;-83
2022/05/03 07:05:43;;;;;;;0.20;0.20;;;11.00;99.90;;;;;;5033195;28;20197;-85
2022/05/03 07:08:10;;;;;;;0.20;0.20;;;11.00;99.90;;;;;;5028373;28;20204;-81
2022/05/03 07:10:36;;;;;;;0.20;0.20;;;10.70;99.90;;;;;;5022956;28;20496;-83
2022/05/03 07:13:03;;;;;;;0.20;0.20;;;10.10;99.90;;;;;;5026823;28;20453;-83
2022/05/03 07:15:30;;;;;;;0.20;0.20;;;10.10;99.90;;;;;;5026014;28;20502;-83
2022/05/03 07:23:26;;;;;;;0.20;0.20;;;11.10;99.90;;;;;;5039915;28;20511;-83
2022/05/03 07:25:51;;;;;;;0.20;0.20;;;10.80;99.90;;;;;;5047255;28;20466;-82
2022/05/03 07:28:17;;;;;;;0.20;0.20;;;10.90;99.90;;;;;;5050552;28;20413;-83
2022/05/03 07:30:43;;;;;;;0.30;0.30;;;10.80;99.90;;;;;;5042115;28;20195;-83
2022/05/03 07:33:08;;;;;;;0.20;0.20;;;11.20;99.90;;;;;;5040268;28;20198;-84
2022/05/03 07:35:34;;;;;;;0.20;0.20;;;11.50;99.90;;;;;;5021743;28;20213;-83
2022/05/03 07:38:00;;;;;;;0.20;0.20;;;11.50;99.90;;;;;;5033661;28;22365;-84
2022/05/03 07:40:25;;;;;;;0.20;0.20;;;11.30;99.90;;;;;;5018639;28;20188;-84
2022/05/03 07:42:51;;;;;;;0.20;0.20;;;11.50;99.90;;;;;;5012231;28;20231;-83
2022/05/03 07:45:16;;;;;;;0.20;0.20;;;11.50;99.90;;;;;;5042974;28;20556;-80
2022/05/03 07:47:42;;;;;;;0.13;0.13;;;11.90;99.90;;;;;;5048179;28;20692;-81
2022/05/03 07:50:08;;;;;;;0.20;0.20;;;11.60;99.90;;;;;;5032747;28;20192;-82
2022/05/03 07:52:35;;;;;;;0.20;0.20;;;11.70;99.90;;;;;;5030051;28;20203;-85
2022/05/03 07:55:02;;;;;;;0.17;0.17;;;12.10;99.90;;;;;;5018858;28;20477;-83
2022/05/03 07:57:28;;;;;;;0.20;0.20;;;12.30;99.90;;;;;;5012882;28;20482;-82
2022/05/03 07:59:55;;;;;;;0.10;0.10;;;12.80;99.90;;;;;;5052216;28;20489;-82
2022/05/03 08:02:24;;;;;;;0.10;0.10;;;12.60;99.90;;;;;;5043041;28;20639;-83
2022/05/03 08:04:52;;;;;;;0.20;0.20;;;12.10;99.90;;;;;;5049980;28;20452;-85
2022/05/03 08:07:18;;;;;;;0.20;0.20;;;12.60;99.90;;;;;;5026923;28;20441;-85
2022/05/03 08:09:45;;;;;;;0.13;0.13;;;12.20;99.90;;;;;;5038952;28;20442;-84
2022/05/03 08:12:11;;;;;;;0.10;0.10;;;12.40;99.90;;;;;;5032389;28;20810;-83
2022/05/03 08:14:36;;;;;;;0.20;0.20;;;12.50;99.90;;;;;;5041762;28;20481;-84
2022/05/03 08:17:03;;;;;;;0.17;0.17;;;12.60;99.90;;;;;;5028937;28;20214;-84
2022/05/03 08:19:29;;;;;;;0.20;0.20;;;13.00;99.90;;;;;;5043557;28;20444;-81
2022/05/03 08:21:56;;;;;;;0.10;0.10;;;13.50;99.90;;;;;;5014644;28;20501;-82
2022/05/03 08:24:22;;;;;;;0.20;0.10;;;13.20;99.90;;;;;;5040242;28;21014;-83
2022/05/03 08:26:48;;;;;;;0.20;0.20;;;13.10;99.90;;;;;;5015171;28;20438;-82
2022/05/03 08:29:14;;;;;;;0.20;0.20;;;12.70;99.90;;;;;;5028565;28;20790;-82
2022/05/03 08:31:39;;;;;;;0.20;0.20;;;12.50;99.90;;;;;;5033099;28;20210;-84
2022/05/03 08:34:05;;;;;;;0.10;0.10;;;13.30;99.90;;;;;;5030686;28;20187;-83
2022/05/03 08:36:31;;;;;;;0.10;0.10;;;14.00;99.90;;;;;;5020966;28;20250;-83
2022/05/03 08:44:25;;;;;;;0.10;0.10;;;13.60;99.90;;;;;;5027932;28;21184;-85
2022/05/03 08:46:53;;;;;;;0.10;0.10;;;13.60;99.90;;;;;;5027708;28;20465;-83
2022/05/03 08:49:20;;;;;;;0.10;0.10;;;13.70;99.90;;;;;;5032812;28;20199;-85
2022/05/03 08:51:48;;;;;;;0.20;0.20;;;13.10;99.90;;;;;;5034778;28;20534;-84
2022/05/03 08:54:15;;;;;;;0.10;0.10;;;13.50;99.90;;;;;;5019908;28;20478;-85
2022/05/03 08:56:40;;;;;;;0.13;0.13;;;14.20;99.90;;;;;;5027500;28;20482;-83
2022/05/03 08:59:07;;;;;;;0.10;0.10;;;13.50;99.90;;;;;;5029614;28;20465;-84
2022/05/03 09:01:32;;;;;;;0.10;0.10;;;14.10;99.90;;;;;;5030988;28;20191;-83
2022/05/03 09:03:58;;;;;;;0.10;0.10;;;14.30;99.90;;;;;;5028491;28;20983;-84
2022/05/03 09:06:47;;;;;;;0.20;0.20;;;14.10;99.90;;;;;;5022185;28;20195;-83
2022/05/03 09:09:18;;;;;;;0.20;0.20;;;14.20;99.90;;;;;;5024514;28;20199;-84
2022/05/03 09:11:46;;;;;;;0.20;0.20;;;14.20;99.90;;;;;;5020600;28;20451;-82
2022/05/03 09:14:13;;;;;;;0.00;0.00;;;13.90;99.90;;;;;;5027550;28;20464;-83
2022/05/03 09:16:49;;;;;;;0.10;0.10;;;14.60;99.90;;;;;;5021301;28;20506;-85
2022/05/03 09:19:25;;;;;;;0.00;0.00;;;13.70;99.90;;;;;;5032766;28;20455;-84
2022/05/03 09:25:02;;;;;;;0.00;0.00;;;14.60;99.90;;;;;;5027603;28;20456;-84
2022/05/03 09:27:27;;;;;;;0.00;0.00;;;14.30;99.90;;;;;;5021215;28;20458;-85
2022/05/03 09:30:00;;;;;;;0.00;0.00;;;15.20;99.90;;;;;;5034455;28;20460;-83
2022/05/03 09:32:44;;;;;;;0.00;0.00;;;14.80;99.90;;;;;;5031893;28;20202;-82
2022/05/03 09:35:33;;;;;;;0.00;0.00;;;15.20;99.90;;;;;;5025087;28;20489;-84
2022/05/03 09:38:01;;;;;;;0.00;0.00;;;15.60;99.90;;;;;;5024704;28;20449;-86
2022/05/03 09:40:27;;;;;;;0.00;0.00;;;15.50;99.90;;;;;;5037189;28;21101;-85
2022/05/03 09:42:54;;;;;;;0.00;0.00;;;16.00;99.90;;;;;;5047567;28;20445;-86
2022/05/03 09:45:24;;;;;;;0.00;0.00;;;15.40;99.90;;;;;;5051047;28;20464;-85
2022/05/03 09:47:56;;;;;;;0.00;0.00;;;15.10;99.90;;;;;;5032001;28;20440;-85
2022/05/03 09:50:39;;;;;;;0.00;0.00;;;14.80;99.80;;;;;;5022026;28;20446;-83
2022/05/03 09:53:13;;;;;;;0.00;0.00;;;15.00;99.90;;;;;;5036778;28;20441;-85
2022/05/03 09:55:40;;;;;;;0.00;0.00;;;15.90;99.90;;;;;;5045088;28;20507;-86
2022/05/03 09:58:11;;;;;;;0.00;0.00;;;16.30;99.90;;;;;;5032506;28;20450;-86
2022/05/03 10:00:40;;;;;;;0.00;0.00;;;16.00;99.20;;;;;;5037310;28;20479;-86
2022/05/03 10:03:09;;;;;;;0.00;0.00;;;16.30;99.30;;;;;;5029509;28;20484;-86
2022/05/03 10:05:37;;;;;;;0.00;0.00;;;16.30;98.60;;;;;;5027375;28;20450;-86
2022/05/03 10:08:04;;;;;;;0.10;0.10;;;16.00;99.00;;;;;;5018277;28;20917;-87
2022/05/03 10:10:30;;;;;;;0.10;0.10;;;15.90;99.10;;;;;;5026005;28;20473;-85
2022/05/03 10:12:56;;;;;;;0.10;0.10;;;17.00;99.90;;;;;;5034803;28;20437;-86
2022/05/03 10:21:14;;;;;;;0.10;0.10;;;16.60;98.20;;;;;;5024297;28;20474;-85
2022/05/03 10:23:40;;;;;;;0.10;0.10;;;16.80;98.20;;;;;;5020901;28;20462;-87
2022/05/03 10:26:09;;;;;;;0.10;0.10;;;16.60;99.90;;;;;;5028141;28;20492;-86
2022/05/03 10:29:03;;;;;;;0.10;0.10;;;16.90;99.10;;;;;;5041630;28;20666;-85
2022/05/03 10:31:29;;;;;;;0.10;0.10;;;17.80;98.90;;;;;;5017750;28;20438;-89
2022/05/03 10:33:55;;;;;;;0.10;0.00;;;17.60;98.60;;;;;;5035955;28;20454;-87
2022/05/03 10:36:29;;;;;;;0.10;0.10;;;18.50;97.00;;;;;;5028884;28;20486;-90
2022/05/03 10:39:05;;;;;;;0.10;0.00;;;18.80;94.00;;;;;;5045512;28;20190;-90
2022/05/03 10:41:31;;;;;;;0.10;0.00;;;19.40;95.20;;;;;;5026159;28;20948;-89
2022/05/03 10:43:56;;;;;;;0.10;0.00;;;18.50;95.20;;;;;;5024697;28;20453;-88
2022/05/03 10:46:23;;;;;;;0.10;0.07;;;19.30;95.20;;;;;;5019990;28;20450;-86
2022/05/03 10:49:24;;;;;;;0.10;0.10;;;18.40;92.00;;;;;;5044926;28;20251;-87
2022/05/03 10:51:50;;;;;;;0.00;0.00;;;18.20;93.80;;;;;;5026666;28;20925;-87
2022/05/03 10:54:15;;;;;;;0.07;0.00;;;18.80;93.60;;;;;;5023011;28;20450;-87
2022/05/03 10:57:01;;;;;;;0.07;0.00;;;18.10;92.10;;;;;;5041996;28;20552;-87
2022/05/03 10:59:46;;;;;;;0.10;0.00;;;18.50;93.70;;;;;;5025675;28;20186;-87
2022/05/03 11:02:11;;;;;;;0.10;0.00;;;17.90;93.80;;;;;;5018320;28;20462;-86
2022/05/03 11:05:14;;;;;;;0.10;0.07;;;19.30;94.30;;;;;;5033685;28;20438;-88
2022/05/03 11:07:40;;;;;;;0.00;0.00;;;19.60;94.70;;;;;;5015216;28;20516;-87
2022/05/03 11:10:43;;;;;;;0.00;0.00;;;19.30;92.60;;;;;;5025088;28;21000;-87
2022/05/03 11:13:38;;;;;;;0.00;0.00;;;19.80;91.60;;;;;;5053190;28;20183;-87
2022/05/03 11:16:24;;;;;;;0.10;0.00;;;19.60;92.40;;;;;;5030616;28;20491;-87
2022/05/03 11:18:50;;;;;;;0.10;0.00;;;19.40;90.50;;;;;;5034546;28;20460;-87
2022/05/03 11:21:16;;;;;;;0.10;0.10;;;19.80;93.10;;;;;;5028729;28;20458;-86
2022/05/03 11:23:52;;;;;;;0.00;0.00;;;19.10;89.60;;;;;;5047496;28;20425;-88
2022/05/03 11:26:20;;;;;;;0.07;0.00;;;19.80;91.20;;;;;;5031744;28;20184;-86
2022/05/03 11:28:49;;;;;;;0.10;0.00;;;20.50;90.10;;;;;;5049814;28;20442;-87
2022/05/03 11:31:22;;;;;;;0.00;0.00;;;21.20;82.60;;;;;;5026124;28;20458;-86
2022/05/03 11:33:52;;;;;;;0.00;0.00;;;20.20;85.60;;;;;;5043136;28;21138;-88
2022/05/03 11:36:22;;;;;;;0.10;0.10;;;20.20;87.80;;;;;;5030402;28;20498;-88
2022/05/03 11:38:52;;;;;;;0.10;0.00;;;20.90;86.10;;;;;;5027398;28;20453;-89
2022/05/03 11:41:26;;;;;;;0.10;0.00;;;20.20;87.00;;;;;;5038165;28;20506;-88
2022/05/03 11:43:52;;;;;;;0.00;0.00;;;20.10;85.50;;;;;;5031539;28;20473;-86
2022/05/03 11:46:19;;;;;;;0.00;0.00;;;20.40;84.60;;;;;;5037738;28;20544;-88
2022/05/03 11:48:50;;;;;;;0.00;0.00;;;19.90;86.30;;;;;;5037280;28;20445;-86
2022/05/03 11:56:46;;;;;;;0.00;0.00;;;20.80;80.20;;;;;;5031353;28;20520;-86
2022/05/03 11:59:13;;;;;;;0.00;0.00;;;22.00;77.30;;;;;;5028088;28;20445;-87
2022/05/03 12:01:38;;;;;;;0.00;0.00;;;21.30;79.80;;;;;;5028055;28;20461;-85
2022/05/03 12:04:05;;;;;;;0.00;0.00;;;21.60;78.50;;;;;;5029098;28;20429;-86
2022/05/03 12:06:43;;;;;;;0.00;0.00;;;22.30;77.50;;;;;;5031419;28;20195;-85
2022/05/03 12:09:16;;;;;;;0.00;0.00;;;22.30;76.40;;;;;;5041339;28;20475;-86
2022/05/03 12:14:43;;;;;;;0.00;0.00;;;20.10;79.00;;;;;;5029962;28;21088;-85
2022/05/03 12:17:09;;;;;;;0.00;0.00;;;20.10;81.70;;;;;;5018799;28;20452;-85
2022/05/03 12:19:36;;;;;;;0.00;0.00;;;20.70;81.80;;;;;;5018371;28;20445;-87
2022/05/03 12:22:08;;;;;;;0.00;0.00;;;20.70;83.20;;;;;;5029484;28;20190;-86
2022/05/03 12:24:34;;;;;;;0.00;0.00;;;21.70;78.80;;;;;;5037782;28;20464;-86
2022/05/03 12:27:24;;;;;;;0.00;0.00;;;21.30;76.80;;;;;;5032234;28;20445;-85
2022/05/03 12:29:49;;;;;;;0.00;0.00;;;21.30;82.70;;;;;;5046150;28;20509;-86
2022/05/03 12:32:17;;;;;;;0.00;0.00;;;22.10;80.60;;;;;;5015480;28;20441;-86
2022/05/03 12:35:03;;;;;;;0.00;0.00;;;21.10;80.80;;;;;;5038067;28;20633;-87
2022/05/03 12:37:30;;;;;;;0.00;0.00;;;21.90;84.10;;;;;;5042978;28;20594;-86
2022/05/03 12:40:00;;;;;;;0.00;0.00;;;21.80;79.10;;;;;;5038789;28;20500;-87
2022/05/03 12:42:25;;;;;;;0.00;0.00;;;21.00;81.40;;;;;;5029366;28;20460;-86
2022/05/03 12:44:57;;;;;;;0.00;0.00;;;21.30;81.70;;;;;;5022596;28;20447;-87
2022/05/03 12:47:26;;;;;;;0.10;0.00;;;21.90;81.60;;;;;;5028479;28;20195;-87
2022/05/03 12:49:52;;;;;;;0.07;0.00;;;21.90;77.80;;;;;;5025107;28;20504;-86
2022/05/03 12:52:18;;;;;;;0.00;0.00;;;21.70;80.20;;;;;;5052309;28;20947;-87
2022/05/03 12:54:45;;;;;;;0.10;0.00;;;21.00;78.50;;;;;;5033453;28;20200;-86
2022/05/03 12:59:56;;;;;;;0.00;0.00;;;21.40;83.50;;;;;;5015566;28;20901;-88
2022/05/03 13:02:23;;;;;;;0.00;0.00;;;21.20;79.70;;;;;;5031765;28;20817;-87
2022/05/03 13:04:49;;;;;;;0.00;0.00;;;21.20;76.90;;;;;;5032576;28;20417;-87
2022/05/03 13:07:15;;;;;;;0.00;0.00;;;21.60;74.80;;;;;;5013565;28;21112;-87
2022/05/03 13:09:41;;;;;;;0.00;0.00;;;21.60;79.20;;;;;;5024370;28;20233;-87
2022/05/03 13:12:07;;;;;;;0.00;0.00;;;21.70;80.50;;;;;;5033419;28;20840;-87
2022/05/03 13:14:33;;;;;;;0.00;0.00;;;21.50;76.50;;;;;;5030289;28;20235;-87
2022/05/03 13:16:59;;;;;;;0.00;0.00;;;21.00;78.90;;;;;;5029203;28;20557;-87
2022/05/03 13:19:26;;;;;;;0.00;0.00;;;20.00;78.80;;;;;;5015386;28;21097;-86
2022/05/03 13:21:54;;;;;;;0.00;0.00;;;20.50;78.80;;;;;;5012407;28;21009;-86
2022/05/03 13:24:21;;;;;;;0.00;0.00;;;20.70;76.00;;;;;;5043774;28;20442;-86
2022/05/03 13:26:46;;;;;;;0.00;0.00;;;21.40;74.70;;;;;;5012597;28;20419;-88
2022/05/03 13:29:17;;;;;;;0.00;0.00;;;20.90;77.10;;;;;;5045765;28;20493;-85
2022/05/03 13:31:46;;;;;;;0.00;0.00;;;21.20;76.00;;;;;;5013398;28;20279;-86
2022/05/03 13:34:13;;;;;;;0.00;0.00;;;21.20;75.10;;;;;;5012902;28;20451;-86
2022/05/03 13:42:11;;;;;;;0.00;0.00;;;20.30;79.10;;;;;;5012027;28;20533;-87
2022/05/03 13:44:38;;;;;;;0.00;0.00;;;20.60;79.80;;;;;;5048193;28;21022;-87
2022/05/03 13:47:04;;;;;;;0.00;0.00;;;20.90;75.70;;;;;;5026840;28;20442;-88
2022/05/03 13:49:30;;;;;;;0.00;0.00;;;21.30;78.80;;;;;;5028976;28;20819;-87
2022/05/03 13:51:57;;;;;;;0.00;0.00;;;21.10;77.50;;;;;;5032518;28;20532;-87